createdAt,value
2018-08-17T00:00:08.358Z,21.49
2018-08-17T00:02:37.399Z,21.61
2018-08-17T00:05:06.355Z,21.64
2018-08-17T00:07:35.316Z,21.65
2018-08-17T00:10:04.769Z,21.72
2018-08-17T00:12:33.778Z,21.86
2018-08-17T00:15:02.803Z,21.90
2018-08-17T00:17:31.800Z,21.89
2018-08-17T00:20:00.799Z,21.84
2018-08-17T00:22:29.793Z,21.78
2018-08-17T00:24:58.779Z,21.74
2018-08-17T00:27:27.821Z,21.79
2018-08-17T00:29:56.827Z,21.97
2018-08-17T00:32:25.838Z,21.95
2018-08-17T00:34:54.839Z,21.83
2018-08-17T00:37:23.942Z,21.73
2018-08-17T00:39:52.911Z,21.71
2018-08-17T00:42:21.903Z,21.67
2018-08-17T00:44:50.882Z,21.68
2018-08-17T00:47:19.919Z,21.61
2018-08-17T00:49:48.895Z,21.64
2018-08-17T00:52:17.924Z,21.61
2018-08-17T00:54:46.902Z,21.66
2018-08-17T00:57:15.919Z,21.67
2018-08-17T00:59:44.901Z,21.63
2018-08-17T01:02:13.878Z,21.57
2018-08-17T01:04:42.974Z,21.47
2018-08-17T01:07:11.899Z,21.43
2018-08-17T01:09:40.893Z,21.47
2018-08-17T01:12:09.992Z,21.29
2018-08-17T01:14:38.990Z,21.21
2018-08-17T01:17:07.962Z,21.14
2018-08-17T01:19:37.090Z,21.01
2018-08-17T01:22:06.310Z,20.99
2018-08-17T01:24:35.286Z,20.81
2018-08-17T01:27:04.282Z,20.61
2018-08-17T01:29:35.598Z,20.39
2018-08-17T01:32:04.655Z,20.25
2018-08-17T01:34:33.661Z,20.16
2018-08-17T01:37:02.626Z,20.03
2018-08-17T01:39:31.662Z,19.86
2018-08-17T01:42:00.665Z,19.68
2018-08-17T01:44:29.657Z,19.68
2018-08-17T01:46:58.638Z,19.52
2018-08-17T01:49:27.697Z,19.44
2018-08-17T01:51:56.682Z,19.51
2018-08-17T01:54:25.741Z,19.51
2018-08-17T01:56:54.730Z,19.37
2018-08-17T01:59:23.733Z,19.31
2018-08-17T02:01:52.741Z,19.16
2018-08-17T02:04:21.743Z,19.08
2018-08-17T02:06:50.725Z,19.12
2018-08-17T02:09:19.739Z,19.02
2018-08-17T02:11:48.750Z,18.98
2018-08-17T02:14:17.752Z,19.03
2018-08-17T02:16:47.143Z,18.96
2018-08-17T02:19:16.138Z,19.00
2018-08-17T02:21:45.111Z,18.95
2018-08-17T02:24:14.106Z,18.96
2018-08-17T02:26:43.081Z,18.97
2018-08-17T02:29:12.211Z,18.85
2018-08-17T02:31:41.218Z,18.72
2018-08-17T02:34:10.255Z,18.70
2018-08-17T02:36:39.221Z,18.67
2018-08-17T02:39:13.354Z,18.63
2018-08-17T02:41:42.369Z,18.54
2018-08-17T02:44:11.367Z,18.54
2018-08-17T02:46:40.363Z,18.44
2018-08-17T02:49:09.354Z,18.44
2018-08-17T02:51:38.345Z,18.31
2018-08-17T02:54:07.431Z,18.21
2018-08-17T02:56:36.406Z,18.13
2018-08-17T02:59:05.644Z,18.10
2018-08-17T03:01:34.689Z,18.05
2018-08-17T03:04:03.698Z,18.13
2018-08-17T03:06:32.743Z,18.12
2018-08-17T03:09:02.622Z,18.06
2018-08-17T03:11:31.614Z,18.08
2018-08-17T03:14:00.619Z,18.11
2018-08-17T03:16:29.601Z,18.06
2018-08-17T03:18:58.823Z,18.03
2018-08-17T03:21:27.783Z,18.06
2018-08-17T03:23:56.891Z,18.17
2018-08-17T03:26:25.930Z,18.19
2018-08-17T03:28:54.934Z,18.26
2018-08-17T03:31:23.923Z,18.22
2018-08-17T03:33:52.959Z,18.32
2018-08-17T03:36:21.934Z,18.30
2018-08-17T03:38:50.945Z,18.29
2018-08-17T03:41:19.922Z,18.37
2018-08-17T03:43:48.939Z,18.35
2018-08-17T03:46:18.186Z,18.30
2018-08-17T03:48:47.147Z,18.22
2018-08-17T03:51:16.186Z,18.25
2018-08-17T03:53:45.174Z,18.27
2018-08-17T03:56:14.143Z,18.24
2018-08-17T03:58:43.141Z,18.21
2018-08-17T04:01:12.120Z,18.12
2018-08-17T04:03:41.110Z,18.21
2018-08-17T04:06:10.090Z,18.13
2018-08-17T04:08:39.154Z,18.10
2018-08-17T04:11:08.149Z,18.05
2018-08-17T04:13:37.222Z,18.01
2018-08-17T04:16:06.224Z,18.26
2018-08-17T04:18:35.202Z,18.24
2018-08-17T04:21:04.458Z,18.09
2018-08-17T04:23:33.456Z,17.95
2018-08-17T04:26:02.423Z,17.84
2018-08-17T04:28:31.426Z,17.67
2018-08-17T04:31:00.417Z,17.61
2018-08-17T04:33:29.581Z,17.57
2018-08-17T04:35:58.559Z,17.55
2018-08-17T04:38:27.635Z,17.53
2018-08-17T04:40:56.611Z,17.49
2018-08-17T04:43:25.606Z,17.50
2018-08-17T04:45:54.561Z,17.52
2018-08-17T04:48:23.674Z,17.50
2018-08-17T04:50:52.640Z,17.56
2018-08-17T04:53:21.622Z,17.71
2018-08-17T04:55:50.610Z,17.68
2018-08-17T04:58:19.694Z,17.68
2018-08-17T05:00:48.790Z,17.66
2018-08-17T05:03:17.824Z,17.68
2018-08-17T05:05:46.778Z,17.67
2018-08-17T05:08:15.813Z,17.65
2018-08-17T05:10:44.971Z,17.68
2018-08-17T05:13:13.958Z,17.70
2018-08-17T05:15:42.977Z,17.68
2018-08-17T05:18:12.185Z,17.70
2018-08-17T05:20:41.258Z,17.75
2018-08-17T05:23:10.538Z,17.82
2018-08-17T05:25:39.585Z,17.82
2018-08-17T05:28:08.563Z,17.82
2018-08-17T05:30:37.554Z,17.85
2018-08-17T05:33:06.539Z,17.92
2018-08-17T05:35:35.607Z,18.02
2018-08-17T05:38:04.616Z,18.13
2018-08-17T05:40:33.626Z,18.20
2018-08-17T05:43:02.604Z,18.28
2018-08-17T05:45:31.598Z,18.37
2018-08-17T05:48:00.582Z,18.46
2018-08-17T05:50:32.534Z,18.47
2018-08-17T05:53:02.036Z,18.57
2018-08-17T05:55:31.282Z,18.69
2018-08-17T05:58:00.250Z,18.82
2018-08-17T06:00:29.254Z,18.99
2018-08-17T06:02:58.407Z,19.10
2018-08-17T06:05:27.296Z,19.35
2018-08-17T06:07:56.266Z,19.47
2018-08-17T06:10:25.282Z,19.71
2018-08-17T06:12:54.333Z,19.83
2018-08-17T06:15:23.331Z,20.00
2018-08-17T06:17:52.303Z,20.14
2018-08-17T06:20:21.317Z,20.44
2018-08-17T06:22:50.426Z,20.58
2018-08-17T06:25:19.415Z,20.75
2018-08-17T06:27:48.382Z,20.85
2018-08-17T06:30:17.379Z,21.04
2018-08-17T06:32:46.362Z,21.03
2018-08-17T06:35:15.403Z,21.06
2018-08-17T06:37:44.701Z,21.11
2018-08-17T06:40:13.723Z,21.17
2018-08-17T06:42:42.743Z,21.27
2018-08-17T06:45:12.615Z,21.23
2018-08-17T06:47:41.638Z,21.17
2018-08-17T06:50:11.270Z,21.17
2018-08-17T06:52:41.383Z,21.24
2018-08-17T06:55:11.502Z,21.20
2018-08-17T06:57:40.841Z,21.29
2018-08-17T07:00:14.198Z,21.38
2018-08-17T07:02:44.285Z,21.44
2018-08-17T07:05:13.290Z,21.64
2018-08-17T07:07:42.402Z,21.68
2018-08-17T07:10:12.766Z,21.75
2018-08-17T07:12:42.210Z,21.99
2018-08-17T07:15:11.350Z,22.00
2018-08-17T07:17:40.816Z,22.02
2018-08-17T07:20:11.856Z,22.26
2018-08-17T07:22:41.826Z,22.28
2018-08-17T07:25:11.206Z,22.36
2018-08-17T07:27:40.321Z,22.41
2018-08-17T07:30:09.865Z,22.64
2018-08-17T07:32:38.920Z,22.68
2018-08-17T07:35:09.864Z,22.95
2018-08-17T07:37:39.204Z,23.08
2018-08-17T07:40:08.854Z,23.35
2018-08-17T07:42:38.594Z,23.41
2018-08-17T07:45:08.111Z,23.70
2018-08-17T07:47:37.361Z,23.88
2018-08-17T07:50:09.078Z,24.35
2018-08-17T07:52:39.343Z,24.52
2018-08-17T07:55:08.870Z,24.89
2018-08-17T07:57:37.926Z,25.15
2018-08-17T08:00:07.938Z,25.11
2018-08-17T08:02:38.240Z,25.14
2018-08-17T08:05:09.062Z,25.17
2018-08-17T08:07:39.217Z,24.97
2018-08-17T08:10:09.818Z,25.25
2018-08-17T08:12:39.722Z,25.22
2018-08-17T08:15:09.820Z,25.19
2018-08-17T08:17:39.053Z,25.25
2018-08-17T08:20:19.742Z,25.37
2018-08-17T08:22:50.566Z,25.41
2018-08-17T08:25:19.900Z,25.32
2018-08-17T08:27:49.210Z,25.22
2018-08-17T08:30:18.853Z,25.11
2018-08-17T08:32:48.282Z,25.05
2018-08-17T08:35:18.214Z,24.96
2018-08-17T08:37:47.206Z,25.05
2018-08-17T08:40:16.546Z,24.86
2018-08-17T08:42:45.773Z,24.95
2018-08-17T08:45:14.761Z,25.07
2018-08-17T08:47:45.333Z,25.16
2018-08-17T08:50:16.064Z,25.26
2018-08-17T08:52:45.599Z,25.62
2018-08-17T08:55:14.953Z,25.51
2018-08-17T08:57:44.378Z,25.63
2018-08-17T09:00:13.754Z,25.62
2018-08-17T09:02:43.253Z,25.68
2018-08-17T09:05:12.243Z,25.89
2018-08-17T09:07:42.108Z,26.19
2018-08-17T09:10:11.837Z,26.53
2018-08-17T09:12:40.878Z,26.15
2018-08-17T09:15:11.740Z,26.30
2018-08-17T09:17:42.554Z,26.52
2018-08-17T09:20:13.648Z,26.61
2018-08-17T09:22:43.109Z,26.76
2018-08-17T09:25:13.006Z,26.82
2018-08-17T09:27:42.869Z,26.90
2018-08-17T09:30:13.683Z,27.05
2018-08-17T09:32:42.579Z,26.90
2018-08-17T09:35:12.948Z,27.17
2018-08-17T09:37:41.973Z,27.20
2018-08-17T09:40:12.105Z,27.06
2018-08-17T09:42:41.309Z,27.32
2018-08-17T09:45:12.539Z,27.36
2018-08-17T09:47:42.027Z,27.34
2018-08-17T09:50:13.802Z,27.47
2018-08-17T09:52:43.238Z,27.63
2018-08-17T09:55:12.344Z,27.64
2018-08-17T09:57:41.587Z,27.65
2018-08-17T10:00:11.722Z,27.66
2018-08-17T10:02:46.430Z,27.64
2018-08-17T10:05:22.691Z,27.84
2018-08-17T10:07:57.059Z,27.93
2018-08-17T10:10:26.082Z,27.97
2018-08-17T10:12:55.077Z,28.13
2018-08-17T10:15:24.054Z,28.41
2018-08-17T10:17:53.067Z,28.44
2018-08-17T10:20:24.227Z,28.11
2018-08-17T10:22:59.808Z,28.26
2018-08-17T10:25:28.787Z,28.00
2018-08-17T10:27:58.560Z,28.29
2018-08-17T10:30:27.530Z,28.59
2018-08-17T10:32:58.564Z,28.63
2018-08-17T10:35:28.815Z,28.72
2018-08-17T10:37:59.059Z,28.70
2018-08-17T10:40:28.239Z,29.02
2018-08-17T10:43:00.952Z,29.12
2018-08-17T10:45:30.058Z,29.44
2018-08-17T10:47:59.298Z,29.31
2018-08-17T10:50:30.523Z,29.43
2018-08-17T10:53:00.682Z,29.70
2018-08-17T10:55:37.692Z,29.54
2018-08-17T10:58:07.055Z,29.99
2018-08-17T11:00:36.054Z,29.79
2018-08-17T11:03:05.121Z,29.80
2018-08-17T11:05:34.090Z,30.16
2018-08-17T11:09:11.040Z,30.32
2018-08-17T11:11:43.407Z,30.24
2018-08-17T11:14:12.383Z,30.13
2018-08-17T11:16:41.370Z,30.32
2018-08-17T11:19:10.495Z,30.41
2018-08-17T11:21:39.491Z,30.43
2018-08-17T11:24:08.506Z,30.59
2018-08-17T11:26:38.107Z,30.63
2018-08-17T11:29:07.107Z,30.87
2018-08-17T11:31:36.145Z,30.72
2018-08-17T11:34:05.241Z,30.72
2018-08-17T11:36:34.231Z,30.82
2018-08-17T11:39:03.511Z,30.91
2018-08-17T11:41:32.568Z,31.09
2018-08-17T11:44:05.907Z,31.19
2018-08-17T11:46:34.904Z,31.38
2018-08-17T11:49:03.903Z,31.49
2018-08-17T11:51:33.235Z,31.20
2018-08-17T11:54:02.508Z,31.13
2018-08-17T11:56:31.463Z,31.16
2018-08-17T11:59:00.779Z,31.42
2018-08-17T12:01:29.784Z,31.43
2018-08-17T12:03:58.880Z,31.28
2018-08-17T12:06:27.900Z,31.37
2018-08-17T12:08:57.844Z,31.77
2018-08-17T12:11:26.819Z,31.86
2018-08-17T12:13:55.853Z,31.68
2018-08-17T12:16:24.871Z,31.70
2018-08-17T12:18:53.914Z,31.92
2018-08-17T12:21:22.887Z,31.92
2018-08-17T12:23:51.877Z,31.87
2018-08-17T12:26:20.972Z,32.00
2018-08-17T12:28:49.962Z,32.35
2018-08-17T12:31:18.949Z,32.42
2018-08-17T12:33:48.294Z,32.59
2018-08-17T12:36:17.294Z,32.57
2018-08-17T12:38:46.291Z,32.67
2018-08-17T12:41:15.538Z,32.75
2018-08-17T12:43:44.539Z,32.53
2018-08-17T12:46:13.523Z,32.69
2018-08-17T12:48:42.832Z,32.78
2018-08-17T12:51:11.883Z,32.69
2018-08-17T12:53:40.876Z,32.56
2018-08-17T12:56:09.971Z,32.54
2018-08-17T12:58:38.955Z,32.80
2018-08-17T13:01:08.027Z,32.85
2018-08-17T13:03:37.072Z,32.74
2018-08-17T13:06:06.060Z,32.80
2018-08-17T13:08:35.072Z,32.86
2018-08-17T13:11:04.092Z,33.10
2018-08-17T13:13:33.089Z,33.19
2018-08-17T13:16:04.588Z,33.25
2018-08-17T13:18:34.483Z,33.33
2018-08-17T13:21:03.492Z,33.25
2018-08-17T13:23:32.536Z,33.01
2018-08-17T13:26:01.596Z,32.99
2018-08-17T13:28:30.615Z,33.08
2018-08-17T13:30:59.604Z,32.98
2018-08-17T13:33:28.596Z,33.10
2018-08-17T13:35:57.628Z,33.30
2018-08-17T13:38:26.604Z,33.31
2018-08-17T13:40:55.618Z,33.53
2018-08-17T13:43:24.584Z,33.29
2018-08-17T13:45:53.891Z,33.27
2018-08-17T13:48:22.950Z,33.18
2018-08-17T13:50:51.937Z,33.26
2018-08-17T13:53:20.957Z,32.74
2018-08-17T13:55:49.946Z,32.91
2018-08-17T13:58:19.340Z,32.93
2018-08-17T14:00:48.323Z,32.82
2018-08-17T14:03:17.314Z,32.96
2018-08-17T14:05:46.671Z,32.56
2018-08-17T14:08:16.287Z,32.73
2018-08-17T14:10:45.261Z,32.54
2018-08-17T14:13:14.724Z,32.04
2018-08-17T14:15:43.894Z,31.88
2018-08-17T14:18:13.240Z,31.55
2018-08-17T14:20:42.230Z,31.27
2018-08-17T14:23:11.215Z,31.11
2018-08-17T14:25:40.286Z,31.00
2018-08-17T14:28:09.271Z,30.90
2018-08-17T14:30:38.267Z,30.87
2018-08-17T14:33:07.283Z,30.87
2018-08-17T14:35:36.264Z,30.76
2018-08-17T14:38:05.395Z,30.66
2018-08-17T14:40:34.363Z,30.71
2018-08-17T14:43:10.071Z,30.61
2018-08-17T14:45:39.079Z,30.46
2018-08-17T14:48:08.096Z,30.30
2018-08-17T14:50:37.072Z,30.24
2018-08-17T14:53:06.079Z,30.04
2018-08-17T14:55:35.267Z,29.98
2018-08-17T14:58:04.574Z,29.96
2018-08-17T15:00:33.555Z,29.99
2018-08-17T15:03:02.663Z,30.01
2018-08-17T15:05:31.662Z,29.92
2018-08-17T15:08:00.698Z,29.89
2018-08-17T15:10:36.482Z,29.87
2018-08-17T15:13:05.485Z,29.89
2018-08-17T15:15:34.711Z,29.84
2018-08-17T15:18:03.743Z,29.95
2018-08-17T15:20:32.734Z,30.01
2018-08-17T15:23:01.735Z,30.05
2018-08-17T15:25:30.784Z,30.01
2018-08-17T15:27:59.797Z,30.10
2018-08-17T15:30:28.832Z,30.17
2018-08-17T15:32:57.828Z,30.24
2018-08-17T15:35:26.821Z,30.18
2018-08-17T15:37:55.840Z,30.34
2018-08-17T15:40:24.836Z,30.35
2018-08-17T15:42:58.036Z,30.48
2018-08-17T15:45:27.011Z,30.48
2018-08-17T15:47:55.986Z,30.54
2018-08-17T15:50:25.000Z,30.64
2018-08-17T15:52:53.978Z,30.68
2018-08-17T15:55:23.008Z,30.68
2018-08-17T15:57:52.116Z,30.74
2018-08-17T16:00:21.036Z,30.74
2018-08-17T16:02:50.022Z,30.78
2018-08-17T16:05:19.467Z,30.78
2018-08-17T16:07:48.487Z,30.84
2018-08-17T16:10:17.517Z,30.66
2018-08-17T16:12:46.512Z,30.58
2018-08-17T16:15:21.095Z,30.27
2018-08-17T16:17:50.122Z,30.03
2018-08-17T16:20:19.136Z,29.89
2018-08-17T16:22:48.325Z,29.54
2018-08-17T16:25:17.639Z,29.45
2018-08-17T16:27:46.634Z,29.31
2018-08-17T16:30:15.904Z,29.31
2018-08-17T16:32:44.935Z,29.12
2018-08-17T16:35:14.108Z,29.10
2018-08-17T16:37:45.269Z,29.04
2018-08-17T16:40:14.433Z,28.89
2018-08-17T16:42:43.547Z,28.78
2018-08-17T16:45:13.396Z,28.69
2018-08-17T16:47:42.437Z,28.61
2018-08-17T16:50:11.420Z,28.45
2018-08-17T16:52:40.803Z,28.41
2018-08-17T16:55:10.007Z,28.40
2018-08-17T16:57:39.052Z,28.30
2018-08-17T17:00:10.039Z,28.19
2018-08-17T17:02:39.306Z,28.15
2018-08-17T17:05:08.443Z,27.99
2018-08-17T17:07:37.447Z,27.90
2018-08-17T17:10:08.561Z,27.73
2018-08-17T17:12:37.582Z,27.61
2018-08-17T17:15:13.959Z,27.61
2018-08-17T17:17:44.726Z,27.54
2018-08-17T17:20:13.714Z,27.52
2018-08-17T17:22:42.698Z,27.36
2018-08-17T17:25:18.065Z,27.31
2018-08-17T17:27:47.680Z,27.24
2018-08-17T17:30:16.639Z,27.20
2018-08-17T17:32:45.631Z,27.10
2018-08-17T17:35:14.671Z,27.00
2018-08-17T17:37:43.979Z,26.93
2018-08-17T17:40:13.019Z,26.97
2018-08-17T17:42:42.004Z,26.84
2018-08-17T17:45:11.054Z,26.75
2018-08-17T17:47:40.036Z,26.68
2018-08-17T17:50:09.053Z,26.68
2018-08-17T17:52:38.078Z,26.62
2018-08-17T17:55:07.175Z,26.53
2018-08-17T17:57:36.210Z,26.44
2018-08-17T18:00:05.369Z,26.47
2018-08-17T18:02:34.383Z,26.37
2018-08-17T18:05:03.377Z,26.39
2018-08-17T18:07:37.670Z,26.35
2018-08-17T18:10:06.831Z,26.24
2018-08-17T18:12:35.823Z,26.20
2018-08-17T18:15:05.195Z,26.15
2018-08-17T18:17:34.202Z,26.08
2018-08-17T18:20:03.211Z,25.99
2018-08-17T18:22:32.774Z,25.95
2018-08-17T18:25:07.935Z,25.89
2018-08-17T18:27:36.986Z,25.81
2018-08-17T18:30:06.127Z,25.77
2018-08-17T18:32:35.238Z,25.60
2018-08-17T18:35:04.476Z,25.53
2018-08-17T18:37:33.523Z,25.53
2018-08-17T18:40:02.514Z,25.45
2018-08-17T18:42:31.551Z,25.33
2018-08-17T18:45:00.625Z,25.18
2018-08-17T18:47:29.631Z,25.08
2018-08-17T18:49:58.627Z,25.00
2018-08-17T18:52:27.689Z,24.98
2018-08-17T18:54:56.724Z,24.88
2018-08-17T18:57:26.008Z,24.79
2018-08-17T18:59:55.015Z,24.74
2018-08-17T19:02:24.011Z,24.63
2018-08-17T19:04:53.044Z,24.53
2018-08-17T19:07:22.447Z,24.51
2018-08-17T19:09:51.451Z,24.38
2018-08-17T19:12:20.563Z,24.24
2018-08-17T19:14:50.643Z,24.18
2018-08-17T19:17:25.031Z,24.23
2018-08-17T19:19:54.107Z,24.11
2018-08-17T19:22:23.134Z,24.03
2018-08-17T19:24:52.926Z,24.03
2018-08-17T19:27:31.310Z,23.98
2018-08-17T19:30:00.427Z,23.91
2018-08-17T19:32:29.488Z,23.87
2018-08-17T19:34:58.507Z,23.85
2018-08-17T19:37:27.539Z,23.78
2018-08-17T19:39:56.567Z,23.70
2018-08-17T19:42:25.567Z,23.65
2018-08-17T19:44:54.577Z,23.58
2018-08-17T19:47:23.807Z,23.56
2018-08-17T19:49:52.804Z,23.46
2018-08-17T19:52:21.811Z,23.41
2018-08-17T19:54:50.851Z,23.37
2018-08-17T19:57:19.851Z,23.32
2018-08-17T19:59:48.855Z,23.35
2018-08-17T20:02:17.882Z,23.18
2018-08-17T20:04:46.898Z,23.12
2018-08-17T20:07:15.931Z,23.10
2018-08-17T20:09:44.947Z,23.05
2018-08-17T20:12:14.138Z,23.03
2018-08-17T20:14:43.175Z,22.95
2018-08-17T20:17:12.194Z,22.86
2018-08-17T20:19:47.811Z,22.89
2018-08-17T20:22:19.984Z,22.83
2018-08-17T20:24:49.056Z,22.65
2018-08-17T20:27:18.835Z,22.52
2018-08-17T20:29:47.934Z,22.45
2018-08-17T20:32:17.000Z,22.28
2018-08-17T20:34:47.891Z,22.09
2018-08-17T20:37:17.762Z,22.02
2018-08-17T20:39:47.597Z,21.90
2018-08-17T20:42:16.594Z,21.81
2018-08-17T20:44:45.679Z,21.73
2018-08-17T20:47:14.759Z,21.63
2018-08-17T20:49:43.847Z,21.58
2018-08-17T20:52:12.891Z,21.48
2018-08-17T20:54:41.894Z,21.42
2018-08-17T20:57:10.899Z,21.40
2018-08-17T20:59:46.507Z,21.31
2018-08-17T21:02:15.512Z,21.18
2018-08-17T21:04:44.518Z,21.15
2018-08-17T21:07:13.602Z,21.08
2018-08-17T21:09:42.608Z,21.03
2018-08-17T21:12:11.647Z,20.99
2018-08-17T21:14:40.643Z,20.98
2018-08-17T21:17:09.659Z,20.97
2018-08-17T21:19:40.175Z,20.89
2018-08-17T21:22:10.179Z,20.85
2018-08-17T21:24:39.199Z,20.77
2018-08-17T21:27:08.210Z,20.71
2018-08-17T21:29:37.270Z,20.64
2018-08-17T21:32:06.243Z,20.59
2018-08-17T21:34:35.246Z,20.57
2018-08-17T21:37:04.278Z,20.52
2018-08-17T21:39:33.291Z,20.48
2018-08-17T21:42:02.366Z,20.40
2018-08-17T21:44:31.395Z,20.36
2018-08-17T21:47:04.591Z,20.37
2018-08-17T21:49:34.343Z,20.39
2018-08-17T21:52:06.094Z,20.32
2018-08-17T21:54:35.364Z,20.36
2018-08-17T21:57:04.891Z,20.32
2018-08-17T21:59:39.333Z,20.26
2018-08-17T22:02:10.123Z,20.22
2018-08-17T22:04:39.131Z,20.16
2018-08-17T22:07:12.342Z,20.13
2018-08-17T22:09:42.414Z,20.06
2018-08-17T22:12:12.195Z,20.06
2018-08-17T22:14:41.353Z,19.97
2018-08-17T22:17:21.136Z,19.92
2018-08-17T22:19:50.244Z,19.85
2018-08-17T22:22:19.207Z,19.80
2018-08-17T22:24:54.403Z,19.77
2018-08-17T22:27:24.203Z,19.73
2018-08-17T22:29:55.166Z,19.63
2018-08-17T22:32:24.524Z,19.55
2018-08-17T22:34:53.834Z,19.58
2018-08-17T22:37:22.879Z,19.46
2018-08-17T22:39:51.916Z,19.42
2018-08-17T22:42:22.144Z,19.33
2018-08-17T22:44:51.114Z,19.35
2018-08-17T22:47:22.015Z,19.25
2018-08-17T22:49:51.811Z,19.13
2018-08-17T22:52:21.004Z,19.07
2018-08-17T22:54:55.429Z,19.00
2018-08-17T22:57:24.911Z,18.97
2018-08-17T23:00:10.943Z,19.03
2018-08-17T23:02:40.999Z,18.96
2018-08-17T23:05:11.672Z,18.87
2018-08-17T23:07:40.674Z,18.85
2018-08-17T23:10:11.871Z,18.78
2018-08-17T23:12:40.928Z,18.72
2018-08-17T23:15:11.468Z,18.74
2018-08-17T23:17:41.887Z,18.68
2018-08-17T23:20:10.910Z,18.63
2018-08-17T23:22:46.766Z,18.60
2018-08-17T23:25:15.968Z,18.55
2018-08-17T23:27:45.279Z,18.50
2018-08-17T23:30:14.331Z,18.48
2018-08-17T23:32:43.763Z,18.39
2018-08-17T23:35:13.382Z,18.39
2018-08-17T23:37:42.463Z,18.28
2018-08-17T23:40:11.587Z,18.22
2018-08-17T23:42:40.582Z,18.15
2018-08-17T23:45:11.208Z,18.14
2018-08-17T23:47:40.415Z,18.15
2018-08-17T23:50:10.498Z,18.10
2018-08-17T23:52:39.650Z,18.07
2018-08-17T23:55:10.644Z,18.06
2018-08-17T23:57:39.667Z,17.95
